createdAt,value
2016-09-10T05:01:34.449Z,51.22
2016-09-10T05:02:00.059Z,50.35
2016-09-10T05:02:25.613Z,50.64
2016-09-10T05:02:51.199Z,50.28
2016-09-10T05:03:17.049Z,50.38
2016-09-10T05:03:42.602Z,50.28
2016-09-10T05:04:08.162Z,50.47
2016-09-10T05:04:33.873Z,50.38
2016-09-10T05:04:59.433Z,50.38
2016-09-10T05:05:25.018Z,50.09
2016-09-10T05:05:50.592Z,49.8
2016-09-10T05:06:16.302Z,50.57
2016-09-10T05:06:41.844Z,50.09
2016-09-10T05:07:07.471Z,50.18
2016-09-10T05:07:32.940Z,49.9
2016-09-10T05:07:58.503Z,50.28
2016-09-10T05:08:24.020Z,49.8
2016-09-10T05:08:49.596Z,50.18
2016-09-10T05:09:15.190Z,49.99
2016-09-10T05:09:40.720Z,50.28
2016-09-10T05:10:06.319Z,49.99
2016-09-10T05:10:32.072Z,49.99
2016-09-10T05:10:57.583Z,49.9
2016-09-10T05:11:23.163Z,50.38
2016-09-10T05:11:48.712Z,50.18
2016-09-10T05:12:14.274Z,49.99
2016-09-10T05:12:39.989Z,50.18
2016-09-10T05:13:05.889Z,49.99
2016-09-10T05:13:31.464Z,50.09
2016-09-10T05:13:57.037Z,50.09
2016-09-10T05:14:22.580Z,50.18
2016-09-10T05:14:48.174Z,49.99
2016-09-10T05:15:13.928Z,50.09
2016-09-10T05:15:39.473Z,49.9
2016-09-10T05:16:05.109Z,50.09
2016-09-10T05:16:30.678Z,50.28
2016-09-10T05:16:56.310Z,50.09
2016-09-10T05:17:21.879Z,49.9
2016-09-10T05:17:47.863Z,50.28
2016-09-10T05:18:13.542Z,49.9
2016-09-10T05:18:39.137Z,49.8
2016-09-10T05:19:04.681Z,49.7
2016-09-10T05:20:18.311Z,49.51
2016-09-10T05:20:43.860Z,49.6
2016-09-10T05:21:09.404Z,49.6
2016-09-10T05:21:34.960Z,49.7
2016-09-10T05:22:00.606Z,49.51
2016-09-10T05:22:26.256Z,49.12
2016-09-10T05:22:51.900Z,49.32
2016-09-10T05:23:17.488Z,49.32
2016-09-10T05:23:43.046Z,49.7
2016-09-10T05:24:08.622Z,49.6
2016-09-10T05:24:34.202Z,49.7
2016-09-10T05:24:59.886Z,49.51
2016-09-10T05:25:25.375Z,49.51
2016-09-10T05:25:50.988Z,49.41
2016-09-10T05:26:16.690Z,49.41
2016-09-10T05:26:42.312Z,49.32
2016-09-10T05:27:08.036Z,49.51
2016-09-10T05:27:33.723Z,49.6
2016-09-10T05:27:59.349Z,49.51
2016-09-10T05:28:24.919Z,49.41
2016-09-10T05:28:50.613Z,49.22
2016-09-10T05:29:16.231Z,49.22
2016-09-10T05:29:41.804Z,49.32
2016-09-10T05:30:07.754Z,49.32
2016-09-10T05:30:33.286Z,49.22
2016-09-10T05:30:58.844Z,49.12
2016-09-10T05:31:24.399Z,49.02
2016-09-10T05:31:49.953Z,49.02
2016-09-10T05:32:15.771Z,49.22
2016-09-10T05:32:41.348Z,49.22
2016-09-10T05:33:06.913Z,49.22
2016-09-10T05:33:32.546Z,49.02
2016-09-10T05:33:58.141Z,49.22
2016-09-10T05:34:23.782Z,49.22
2016-09-10T05:34:49.323Z,49.22
2016-09-10T05:35:14.883Z,49.12
2016-09-10T05:35:40.692Z,49.12
2016-09-10T05:36:06.286Z,49.22
2016-09-10T05:36:31.827Z,49.02
2016-09-10T05:36:57.509Z,49.12
2016-09-10T05:37:23.080Z,49.12
2016-09-10T05:37:48.638Z,48.83
2016-09-10T05:38:14.204Z,48.83
2016-09-10T05:38:39.768Z,48.93
2016-09-10T05:39:05.396Z,48.83
2016-09-10T05:39:30.960Z,49.12
2016-09-10T05:39:56.514Z,49.02
2016-09-10T05:40:22.345Z,49.02
2016-09-10T05:40:47.919Z,49.02
2016-09-10T05:41:13.512Z,49.02
2016-09-10T05:41:39.048Z,49.32
2016-09-10T05:42:04.845Z,49.22
2016-09-10T05:42:30.452Z,48.83
2016-09-10T05:42:56.022Z,48.44
2016-09-10T05:43:21.889Z,48.83
2016-09-10T05:43:47.459Z,49.32
2016-09-10T05:44:13.039Z,48.83
2016-09-10T05:44:38.654Z,48.83
2016-09-10T05:45:04.172Z,48.44
2016-09-10T05:45:30.398Z,48.93
2016-09-10T05:45:55.998Z,48.93
2016-09-10T05:46:21.626Z,49.22
2016-09-10T05:46:47.373Z,48.74
2016-09-10T05:47:12.945Z,48.44
2016-09-10T05:47:38.498Z,48.44
2016-09-10T05:48:04.142Z,48.74
2016-09-10T05:48:29.686Z,48.64
2016-09-10T05:48:55.253Z,48.83
2016-09-10T05:49:20.999Z,48.54
2016-09-10T05:49:46.589Z,48.74
2016-09-10T05:50:12.508Z,48.54
2016-09-10T05:50:38.960Z,48.74
2016-09-10T05:51:05.148Z,48.35
2016-09-10T05:51:30.740Z,48.25
2016-09-10T05:51:56.316Z,48.25
2016-09-10T05:52:21.949Z,48.64
2016-09-10T05:52:47.563Z,48.54
2016-09-10T05:53:13.136Z,48.47
2016-09-10T05:53:38.761Z,48.64
2016-09-10T05:54:04.413Z,48.35
2016-09-10T05:54:29.972Z,48.35
2016-09-10T05:54:55.554Z,48.25
2016-09-10T05:55:21.213Z,48.25
2016-09-10T05:55:46.835Z,48.54
2016-09-10T05:56:12.558Z,48.35
2016-09-10T05:56:38.199Z,48.35
2016-09-10T05:57:04.316Z,48.54
2016-09-10T05:57:29.924Z,48.74
2016-09-10T05:57:56.212Z,48.74
2016-09-10T05:58:49.377Z,49.02
2016-09-10T05:59:14.967Z,49.12
2016-09-10T05:59:40.523Z,49.12
2016-09-10T06:00:06.101Z,48.93
2016-09-10T06:00:31.693Z,49.12
2016-09-10T06:01:45.124Z,49.02
2016-09-10T06:02:10.741Z,49.02
2016-09-10T06:02:36.390Z,49.22
2016-09-10T06:03:02.205Z,49.41
2016-09-10T06:03:27.854Z,49.32
2016-09-10T06:03:53.406Z,49.41
2016-09-10T06:04:18.987Z,49.12
2016-09-10T06:04:44.600Z,49.22
2016-09-10T06:05:10.176Z,49.12
2016-09-10T06:05:35.758Z,49.32
2016-09-10T06:06:01.340Z,49.12
2016-09-10T06:06:26.943Z,49.41
2016-09-10T06:06:52.535Z,49.41
2016-09-10T06:07:18.163Z,49.12
2016-09-10T06:07:43.742Z,49.22
2016-09-10T06:08:09.349Z,49.32
2016-09-10T06:08:34.913Z,49.32
2016-09-10T06:09:00.618Z,49.32
2016-09-10T06:09:26.679Z,49.6
2016-09-10T06:09:52.239Z,49.22
2016-09-10T06:10:18.267Z,49.51
2016-09-10T06:10:43.831Z,49.51
2016-09-10T06:11:09.699Z,49.12
2016-09-10T06:11:35.231Z,49.6
2016-09-10T06:12:01.060Z,49.51
2016-09-10T06:12:26.641Z,49.51
2016-09-10T06:12:52.219Z,49.41
2016-09-10T06:13:17.816Z,49.51
2016-09-10T06:13:43.381Z,49.51
2016-09-10T06:14:08.986Z,49.41
2016-09-10T06:14:34.665Z,49.51
2016-09-10T06:15:00.278Z,49.6
2016-09-10T06:15:25.884Z,49.41
2016-09-10T06:15:51.570Z,49.51
2016-09-10T06:16:17.195Z,49.51
2016-09-10T06:16:42.861Z,49.51
2016-09-10T06:17:08.983Z,49.51
2016-09-10T06:17:34.658Z,49.41
2016-09-10T06:18:00.212Z,49.41
2016-09-10T06:18:25.756Z,49.51
2016-09-10T06:18:51.301Z,49.51
2016-09-10T06:19:17.383Z,49.41
2016-09-10T06:19:42.949Z,49.6
2016-09-10T06:20:08.522Z,49.6
2016-09-10T06:20:34.133Z,49.51
2016-09-10T06:20:59.673Z,49.51
2016-09-10T06:21:25.468Z,49.41
2016-09-10T06:21:51.100Z,49.51
2016-09-10T06:22:16.653Z,49.6
2016-09-10T06:22:42.382Z,49.7
2016-09-10T06:23:08.148Z,49.6
2016-09-10T06:23:33.910Z,49.12
2016-09-10T06:23:59.534Z,49.22
2016-09-10T06:24:25.158Z,49.41
2016-09-10T06:24:50.894Z,49.41
2016-09-10T06:25:16.440Z,49.6
2016-09-10T06:25:42.000Z,49.02
2016-09-10T06:26:07.690Z,49.22
2016-09-10T06:26:33.487Z,49.02
2016-09-10T06:26:59.115Z,49.02
2016-09-10T06:27:24.735Z,49.32
2016-09-10T06:27:50.303Z,49.22
2016-09-10T06:28:16.282Z,49.22
2016-09-10T06:28:41.848Z,49.02
2016-09-10T06:29:07.558Z,49.22
2016-09-10T06:29:33.188Z,49.12
2016-09-10T06:29:58.856Z,49.32
2016-09-10T06:30:24.439Z,49.02
2016-09-10T06:30:50.031Z,48.83
2016-09-10T06:31:15.630Z,49.12
2016-09-10T06:31:41.245Z,49.22
2016-09-10T06:32:06.834Z,49.02
2016-09-10T06:32:32.513Z,49.51
2016-09-10T06:32:58.042Z,49.12
2016-09-10T06:33:23.708Z,49.32
2016-09-10T06:33:49.347Z,49.22
2016-09-10T06:34:14.799Z,49.22
2016-09-10T06:34:40.411Z,49.12
2016-09-10T06:35:05.979Z,49.22
2016-09-10T06:35:31.538Z,49.24
2016-09-10T06:35:57.288Z,49.24
2016-09-10T06:36:22.869Z,49.12
2016-09-10T06:36:48.451Z,49.22
2016-09-10T06:37:14.360Z,49.51
2016-09-10T06:37:39.967Z,49.32
2016-09-10T06:38:05.703Z,49.34
2016-09-10T06:38:31.317Z,49.41
2016-09-10T06:39:39.641Z,49.24
2016-09-10T06:40:05.231Z,49.53
2016-09-10T06:40:30.900Z,49.24
2016-09-10T06:40:56.632Z,49.24
2016-09-10T06:41:22.131Z,49.15
2016-09-10T06:41:47.701Z,49.34
2016-09-10T06:42:13.293Z,49.24
2016-09-10T06:42:38.860Z,49.24
2016-09-10T06:43:42.019Z,49.34
2016-09-10T06:44:07.606Z,49.24
2016-09-10T06:44:33.177Z,49.15
2016-09-10T06:44:58.803Z,49.24
2016-09-10T06:45:24.610Z,49.15
2016-09-10T06:45:50.165Z,49.24
2016-09-10T06:46:15.758Z,48.95
2016-09-10T06:46:42.140Z,49.34
2016-09-10T06:47:07.767Z,49.34
2016-09-10T06:47:33.380Z,49.15
2016-09-10T06:47:59.357Z,48.95
2016-09-10T06:48:24.945Z,49.63
2016-09-10T06:48:50.511Z,49.34
2016-09-10T06:49:16.115Z,49.53
2016-09-10T06:49:41.849Z,49.63
2016-09-10T06:50:07.810Z,49.53
2016-09-10T06:50:33.374Z,49.34
2016-09-10T06:50:58.961Z,49.44
2016-09-10T06:51:24.703Z,49.63
2016-09-10T06:51:50.336Z,49.73
2016-09-10T06:52:15.956Z,49.53
2016-09-10T06:52:41.554Z,50.01
2016-09-10T06:53:07.139Z,49.15
2016-09-10T06:53:32.955Z,49.73
2016-09-10T06:53:58.541Z,49.44
2016-09-10T06:54:24.250Z,49.34
2016-09-10T06:54:50.015Z,49.15
2016-09-10T06:55:15.618Z,49.63
2016-09-10T06:55:41.265Z,49.63
2016-09-10T06:56:07.027Z,49.34
2016-09-10T06:56:32.610Z,49.34
2016-09-10T06:56:58.221Z,49.63
2016-09-10T06:57:24.082Z,49.63
2016-09-10T06:57:49.695Z,49.73
2016-09-10T06:58:15.272Z,49.73
2016-09-10T06:58:41.020Z,49.73
2016-09-10T06:59:06.578Z,50.11
2016-09-10T06:59:32.185Z,49.73
2016-09-10T06:59:57.762Z,49.92
2016-09-10T07:00:24.156Z,50.31
2016-09-10T07:00:49.726Z,50.11
2016-09-10T07:01:15.282Z,50.11
2016-09-10T07:01:40.837Z,50.11
2016-09-10T07:02:06.842Z,50.31
2016-09-10T07:02:32.598Z,49.92
2016-09-10T07:02:58.176Z,49.92
2016-09-10T07:03:23.734Z,49.92
2016-09-10T07:03:49.306Z,49.92
2016-09-10T07:04:14.891Z,50.33
2016-09-10T07:04:40.525Z,50.5
2016-09-10T07:05:06.561Z,50.21
2016-09-10T07:05:32.130Z,50.13
2016-09-10T07:05:57.999Z,50.31
2016-09-10T07:06:23.643Z,49.92
2016-09-10T07:06:49.269Z,49.92
2016-09-10T07:07:15.048Z,50.11
2016-09-10T07:07:40.658Z,50.11
2016-09-10T07:08:06.860Z,50.11
2016-09-10T07:08:33.721Z,50.11
2016-09-10T07:08:59.476Z,50.21
2016-09-10T07:09:25.042Z,50.01
2016-09-10T07:09:50.647Z,50.01
2016-09-10T07:10:16.187Z,50.01
2016-09-10T07:10:41.758Z,50.21
2016-09-10T07:11:07.457Z,50.01
2016-09-10T07:11:33.366Z,50.13
2016-09-10T07:12:41.620Z,50.21
2016-09-10T07:13:07.319Z,49.92
2016-09-10T07:13:32.885Z,50.13
2016-09-10T07:13:58.610Z,49.95
2016-09-10T07:14:24.285Z,50.31
2016-09-10T07:14:49.865Z,50.11
2016-09-10T07:15:15.444Z,49.82
2016-09-10T07:15:41.204Z,50.13
2016-09-10T07:16:06.774Z,50.23
2016-09-10T07:16:32.307Z,50.13
2016-09-10T07:16:57.900Z,49.82
2016-09-10T07:17:23.560Z,50.21
2016-09-10T07:17:49.116Z,50.52
2016-09-10T07:18:14.671Z,50.31
2016-09-10T07:18:40.288Z,50.5
2016-09-10T07:19:05.837Z,50.21
2016-09-10T07:19:31.495Z,50.59
2016-09-10T07:19:57.047Z,50.59
2016-09-10T07:20:22.911Z,50.13
2016-09-10T07:20:48.504Z,49.95
2016-09-10T07:21:14.100Z,50.31
2016-09-10T07:21:39.656Z,50.23
2016-09-10T07:22:05.481Z,50.04
2016-09-10T07:22:31.051Z,50.43
2016-09-10T07:22:56.607Z,50.21
2016-09-10T07:23:22.409Z,50.13
2016-09-10T07:23:47.996Z,50.13
2016-09-10T07:24:13.842Z,50.5
2016-09-10T07:24:39.495Z,50.59
2016-09-10T07:25:05.098Z,50.59
2016-09-10T07:25:30.655Z,51.17
2016-09-10T07:25:56.246Z,50.89
2016-09-10T07:26:21.924Z,50.98
2016-09-10T07:26:47.610Z,50.79
2016-09-10T07:27:13.186Z,50.59
2016-09-10T07:27:38.804Z,50.79
2016-09-10T07:28:04.339Z,50.5
2016-09-10T07:28:29.872Z,50.31
2016-09-10T07:28:55.453Z,50.4
2016-09-10T07:29:21.076Z,50.79
2016-09-10T07:29:46.665Z,50.79
2016-09-10T07:30:12.224Z,50.89
2016-09-10T07:30:37.761Z,50.69
2016-09-10T07:31:03.360Z,50.98
2016-09-10T07:31:28.940Z,51.07
2016-09-10T07:31:54.550Z,50.98
2016-09-10T07:32:20.155Z,51.07
2016-09-10T07:32:45.751Z,50.98
2016-09-10T07:33:11.313Z,50.89
2016-09-10T07:33:37.003Z,50.69
2016-09-10T07:34:02.648Z,50.59
2016-09-10T07:34:28.408Z,50.89
2016-09-10T07:34:53.754Z,50.69
2016-09-10T07:35:19.977Z,50.89
2016-09-10T07:35:46.049Z,50.98
2016-09-10T07:36:11.774Z,50.89
2016-09-10T07:36:37.322Z,50.98
2016-09-10T07:37:02.993Z,50.89
2016-09-10T07:37:28.666Z,51.07
2016-09-10T07:37:54.258Z,50.89
2016-09-10T07:38:19.877Z,51.07
2016-09-10T07:38:45.535Z,51.07
2016-09-10T07:39:11.120Z,50.79
2016-09-10T07:39:36.700Z,51.07
2016-09-10T07:40:02.945Z,50.89
2016-09-10T07:40:28.667Z,51.07
2016-09-10T07:40:54.235Z,50.89
2016-09-10T07:41:19.925Z,50.98
2016-09-10T07:41:45.475Z,50.79
2016-09-10T07:42:11.059Z,51.07
2016-09-10T07:42:36.658Z,50.98
2016-09-10T07:43:02.276Z,51.17
2016-09-10T07:43:27.880Z,50.89
2016-09-10T07:43:53.449Z,51.07
2016-09-10T07:44:19.020Z,50.98
2016-09-10T07:44:44.663Z,51.1
2016-09-10T07:45:10.258Z,50.98
2016-09-10T07:45:36.003Z,50.98
2016-09-10T07:46:01.587Z,50.89
2016-09-10T07:46:27.138Z,51.07
2016-09-10T07:46:53.269Z,50.98
2016-09-10T07:47:19.867Z,50.89
2016-09-10T07:47:45.595Z,50.98
2016-09-10T07:48:11.390Z,50.98
2016-09-10T07:48:36.958Z,50.98
2016-09-10T07:49:02.517Z,50.98
2016-09-10T07:49:28.222Z,51.1
2016-09-10T07:49:53.908Z,50.89
2016-09-10T07:50:19.491Z,50.89
2016-09-10T07:50:45.017Z,50.98
2016-09-10T07:51:10.622Z,50.98
2016-09-10T07:51:36.286Z,51.07
2016-09-10T07:52:01.876Z,50.89
2016-09-10T07:52:27.483Z,50.89
2016-09-10T07:52:53.211Z,50.89
2016-09-10T07:53:18.747Z,51.07
2016-09-10T07:53:44.374Z,51.07
2016-09-10T07:54:09.987Z,51.27
2016-09-10T07:54:35.615Z,51.85
2016-09-10T07:55:01.285Z,51.17
2016-09-10T07:55:26.868Z,51.27
2016-09-10T07:55:52.445Z,51.37
2016-09-10T07:56:18.029Z,51.17
2016-09-10T07:56:43.592Z,50.89
2016-09-10T07:57:09.154Z,51.07
2016-09-10T07:57:34.711Z,51.17
2016-09-10T07:58:00.409Z,50.98
2016-09-10T07:58:25.924Z,51.17
2016-09-10T07:58:51.603Z,51.85
2016-09-10T07:59:17.232Z,51.85
2016-09-10T07:59:42.958Z,51.65
2016-09-10T08:00:08.558Z,51.65
2016-09-10T08:00:34.260Z,51.65
2016-09-10T08:00:59.793Z,51.37
2016-09-10T08:01:25.366Z,51.95
2016-09-10T08:01:50.966Z,51.85
2016-09-10T08:02:16.545Z,51.85
2016-09-10T08:02:42.105Z,51.85
2016-09-10T08:03:07.661Z,51.29
2016-09-10T08:03:33.261Z,51.85
2016-09-10T08:03:58.829Z,52.04
2016-09-10T08:04:24.360Z,51.65
2016-09-10T08:04:49.982Z,51.68
2016-09-10T08:05:15.569Z,51.78
2016-09-10T08:05:41.156Z,51.37
2016-09-10T08:06:06.800Z,51.97
2016-09-10T08:06:32.390Z,51.85
2016-09-10T08:06:58.020Z,51.75
2016-09-10T08:07:23.578Z,51.65
2016-09-10T08:07:49.142Z,51.85
2016-09-10T08:08:14.693Z,51.49
2016-09-10T08:08:40.241Z,51.97
2016-09-10T08:09:05.803Z,52.04
2016-09-10T08:09:31.555Z,51.78
2016-09-10T08:09:57.092Z,51.97
2016-09-10T08:10:22.884Z,52.17
2016-09-10T08:10:48.594Z,51.87
2016-09-10T08:11:14.570Z,51.85
2016-09-10T08:11:40.206Z,52.04
2016-09-10T08:12:05.823Z,51.97
2016-09-10T08:12:31.385Z,52.07
2016-09-10T08:12:56.981Z,51.85
2016-09-10T08:13:22.680Z,52.17
2016-09-10T08:13:48.275Z,52.17
2016-09-10T08:14:13.885Z,52.17
2016-09-10T08:14:39.519Z,51.68
2016-09-10T08:15:05.517Z,52.26
2016-09-10T08:15:31.354Z,51.97
2016-09-10T08:15:57.039Z,52.07
2016-09-10T08:16:22.723Z,52.07
2016-09-10T08:16:48.287Z,51.78
2016-09-10T08:17:14.047Z,51.78
2016-09-10T08:17:39.627Z,51.59
2016-09-10T08:18:05.324Z,52.36
2016-09-10T08:18:30.885Z,52.45
2016-09-10T08:18:56.506Z,52.17
2016-09-10T08:19:22.106Z,52.26
2016-09-10T08:19:47.689Z,51.87
2016-09-10T08:20:13.337Z,52.45
2016-09-10T08:20:38.872Z,52.17
2016-09-10T08:21:04.443Z,52.26
2016-09-10T08:21:29.995Z,52.07
2016-09-10T08:21:55.615Z,52.23
2016-09-10T08:22:21.283Z,52.26
2016-09-10T08:22:46.833Z,51.97
2016-09-10T08:23:12.638Z,52.36
2016-09-10T08:23:38.292Z,52.65
2016-09-10T08:24:03.873Z,52.36
2016-09-10T08:24:29.427Z,52.26
2016-09-10T08:24:54.994Z,52.45
2016-09-10T08:25:20.794Z,52.65
2016-09-10T08:25:46.361Z,52.45
2016-09-10T08:26:11.977Z,52.36
2016-09-10T08:26:37.533Z,52.55
2016-09-10T08:27:03.118Z,52.26
2016-09-10T08:27:28.682Z,52.45
2016-09-10T08:27:54.323Z,52.45
2016-09-10T08:28:19.879Z,52.75
2016-09-10T08:28:45.476Z,52.26
2016-09-10T08:29:11.054Z,52.26
2016-09-10T08:29:36.628Z,52.55
2016-09-10T08:30:02.722Z,52.36
2016-09-10T08:30:28.443Z,52.45
2016-09-10T08:30:54.077Z,52.45
2016-09-10T08:31:19.714Z,52.55
2016-09-10T08:31:45.280Z,52.45
2016-09-10T08:32:11.002Z,52.36
2016-09-10T08:32:36.578Z,52.45
2016-09-10T08:33:02.158Z,52.55
2016-09-10T08:33:27.822Z,52.65
2016-09-10T08:33:53.373Z,52.65
2016-09-10T08:34:18.937Z,52.65
2016-09-10T08:34:44.532Z,52.75
2016-09-10T08:35:10.110Z,52.65
2016-09-10T08:35:35.672Z,53.13
2016-09-10T08:36:01.268Z,52.55
2016-09-10T08:36:26.836Z,52.36
2016-09-10T08:36:52.441Z,52.45
2016-09-10T08:37:18.438Z,53.23
2016-09-10T08:37:44.033Z,53.03
2016-09-10T08:38:09.688Z,52.65
2016-09-10T08:38:35.311Z,53.03
2016-09-10T08:39:00.883Z,53.03
2016-09-10T08:39:26.769Z,52.84
2016-09-10T08:39:52.423Z,53.13
2016-09-10T08:40:18.191Z,53.33
2016-09-10T08:40:43.840Z,53.23
2016-09-10T08:41:09.576Z,53.23
2016-09-10T08:41:35.277Z,53.33
2016-09-10T08:42:00.825Z,53.03
2016-09-10T08:42:26.402Z,53.33
2016-09-10T08:42:51.988Z,53.23
2016-09-10T08:43:17.658Z,53.33
2016-09-10T08:43:43.242Z,53.33
2016-09-10T08:44:08.808Z,53.13
2016-09-10T08:44:34.513Z,53.13
2016-09-10T08:45:00.123Z,52.94
2016-09-10T08:45:25.898Z,53.03
2016-09-10T08:45:51.260Z,52.75
2016-09-10T08:46:16.857Z,53.13
2016-09-10T08:46:42.463Z,52.84
2016-09-10T08:47:08.057Z,53.13
2016-09-10T08:47:33.630Z,52.94
2016-09-10T08:47:59.246Z,52.84
2016-09-10T08:48:24.838Z,52.84
2016-09-10T08:48:50.437Z,53.13
2016-09-10T08:49:16.058Z,53.13
2016-09-10T08:49:41.916Z,53.13
2016-09-10T08:50:07.740Z,52.84
2016-09-10T08:50:33.384Z,52.94
2016-09-10T08:50:58.937Z,53.13
2016-09-10T08:51:24.507Z,53.13
2016-09-10T08:51:50.855Z,53.42
2016-09-10T08:52:16.408Z,52.84
2016-09-10T08:52:41.989Z,53.13
2016-09-10T08:53:08.424Z,53.13
2016-09-10T08:53:34.013Z,52.94
2016-09-10T08:53:59.642Z,53.23
2016-09-10T08:54:25.281Z,53.23
2016-09-10T08:54:50.833Z,53.42
2016-09-10T08:55:16.647Z,52.94
2016-09-10T08:55:42.310Z,53.52
2016-09-10T08:56:08.160Z,52.94
2016-09-10T08:56:33.744Z,53.13
2016-09-10T08:56:59.397Z,52.84
2016-09-10T08:57:24.977Z,52.75
2016-09-10T08:57:50.533Z,52.94
2016-09-10T08:58:17.763Z,52.94
2016-09-10T08:58:43.478Z,52.94
2016-09-10T08:59:09.099Z,52.84
2016-09-10T08:59:34.714Z,52.84
2016-09-10T09:00:00.285Z,53.13
2016-09-10T09:00:25.846Z,52.84
2016-09-10T09:00:51.461Z,52.84
2016-09-10T09:01:17.188Z,53.42
2016-09-10T09:01:42.863Z,53.42
2016-09-10T09:02:08.508Z,53.42
2016-09-10T09:02:34.200Z,53.42
2016-09-10T09:02:59.841Z,53.03
2016-09-10T09:03:25.396Z,52.94
2016-09-10T09:03:51.134Z,52.84
2016-09-10T09:04:16.712Z,52.94
2016-09-10T09:04:42.323Z,52.94
2016-09-10T09:05:08.320Z,53.13
2016-09-10T09:05:34.047Z,52.84
2016-09-10T09:05:59.677Z,52.94
2016-09-10T09:06:25.288Z,53.13
2016-09-10T09:06:50.939Z,53.23
2016-09-10T09:07:16.588Z,53.23
2016-09-10T09:07:42.292Z,52.75
2016-09-10T09:08:07.908Z,53.03
2016-09-10T09:08:33.627Z,52.94
2016-09-10T09:08:59.074Z,53.23
2016-09-10T09:09:24.690Z,53.52
2016-09-10T09:09:50.542Z,53.23
2016-09-10T09:10:16.148Z,53.33
2016-09-10T09:10:41.807Z,53.33
2016-09-10T09:11:07.349Z,53.23
2016-09-10T09:11:32.960Z,53.33
2016-09-10T09:11:58.550Z,53.52
2016-09-10T09:12:24.126Z,53.23
2016-09-10T09:12:49.698Z,53.42
2016-09-10T09:13:15.244Z,53.23
2016-09-10T09:13:41.306Z,53.23
2016-09-10T09:14:06.881Z,53.23
2016-09-10T09:14:32.534Z,53.42
2016-09-10T09:14:58.114Z,53.13
2016-09-10T09:15:23.705Z,53.61
2016-09-10T09:15:49.317Z,53.23
2016-09-10T09:16:14.917Z,53.23
2016-09-10T09:16:40.474Z,53.23
2016-09-10T09:17:06.071Z,53.33
2016-09-10T09:17:31.660Z,53.23
2016-09-10T09:17:57.325Z,53.33
2016-09-10T09:18:23.142Z,52.94
2016-09-10T09:18:48.741Z,52.94
2016-09-10T09:19:14.533Z,53.52
2016-09-10T09:19:40.071Z,53.33
2016-09-10T09:20:05.839Z,53.71
2016-09-10T09:20:31.593Z,53.33
2016-09-10T09:20:57.314Z,52.75
2016-09-10T09:21:22.909Z,52.36
2016-09-10T09:21:48.522Z,53.23
2016-09-10T09:22:14.245Z,52.94
2016-09-10T09:22:39.729Z,53.42
2016-09-10T09:23:05.406Z,52.94
2016-09-10T09:23:31.029Z,53.03
2016-09-10T09:23:56.627Z,53.13
2016-09-10T09:24:22.186Z,53.03
2016-09-10T09:24:47.728Z,53.13
2016-09-10T09:25:14.103Z,53.03
2016-09-10T09:25:39.684Z,52.84
2016-09-10T09:26:05.270Z,52.65
2016-09-10T09:26:30.928Z,52.65
2016-09-10T09:26:56.485Z,53.23
2016-09-10T09:27:22.336Z,53.33
2016-09-10T09:27:47.933Z,53.33
2016-09-10T09:28:13.516Z,53.23
2016-09-10T09:28:39.144Z,53.23
2016-09-10T09:29:04.879Z,53.33
2016-09-10T09:29:30.476Z,53.52
2016-09-10T09:29:56.033Z,53.13
2016-09-10T09:30:21.746Z,53.33
2016-09-10T09:30:47.506Z,53.33
2016-09-10T09:31:13.087Z,53.23
2016-09-10T09:31:38.719Z,53.03
2016-09-10T09:32:04.570Z,52.45
2016-09-10T09:32:30.075Z,52.36
2016-09-10T09:32:55.640Z,53.45
2016-09-10T09:33:21.262Z,53.33
2016-09-10T09:33:46.869Z,53.23
2016-09-10T09:34:12.622Z,53.13
2016-09-10T09:34:38.205Z,53.13
2016-09-10T09:35:04.114Z,53.25
2016-09-10T09:35:29.682Z,53.61
2016-09-10T09:35:55.244Z,53.06
2016-09-10T09:36:20.966Z,53.16
2016-09-10T09:36:46.548Z,53.45
2016-09-10T09:37:12.146Z,53.25
2016-09-10T09:37:37.735Z,52.97
2016-09-10T09:38:03.432Z,53.45
2016-09-10T09:38:28.979Z,53.25
2016-09-10T09:38:54.770Z,52.87
2016-09-10T09:39:20.318Z,53.16
2016-09-10T09:39:45.888Z,53.35
2016-09-10T09:40:11.735Z,53.13
2016-09-10T09:40:37.430Z,53.25
2016-09-10T09:41:03.336Z,53.35
2016-09-10T09:41:28.633Z,53.45
2016-09-10T09:42:25.819Z,53.16
2016-09-10T09:42:51.436Z,52.67
2016-09-10T09:43:17.027Z,52.67
2016-09-10T09:43:42.935Z,53.16
2016-09-10T09:44:08.493Z,53.16
2016-09-10T09:44:34.424Z,53.45
2016-09-10T09:45:00.041Z,53.64
2016-09-10T09:45:25.994Z,53.55
2016-09-10T09:45:51.777Z,53.93
2016-09-10T09:46:22.150Z,54.03
2016-09-10T09:46:47.399Z,54.13
2016-09-10T09:47:13.392Z,53.64
2016-09-10T09:47:38.992Z,53.83
2016-09-10T09:48:04.612Z,53.83
2016-09-10T09:48:30.345Z,53.83
2016-09-10T09:48:55.912Z,54.22
2016-09-10T09:49:21.495Z,53.83
2016-09-10T09:49:47.068Z,54.13
2016-09-10T09:50:12.995Z,53.74
2016-09-10T09:50:38.607Z,53.55
2016-09-10T09:51:04.211Z,53.64
2016-09-10T09:51:29.807Z,53.74
2016-09-10T09:51:55.402Z,53.45
2016-09-10T09:52:20.959Z,53.74
2016-09-10T09:52:46.531Z,53.83
2016-09-10T09:53:12.664Z,53.35
2016-09-10T09:53:38.291Z,53.55
2016-09-10T09:54:03.840Z,53.45
2016-09-10T09:54:29.497Z,53.35
2016-09-10T09:54:55.055Z,53.16
2016-09-10T09:55:20.789Z,53.06
2016-09-10T09:55:46.442Z,53.93
2016-09-10T09:56:12.469Z,53.06
2016-09-10T09:56:38.062Z,52.87
2016-09-10T09:57:03.640Z,53.16
2016-09-10T09:57:29.211Z,52.67
2016-09-10T09:57:55.161Z,53.45
2016-09-10T09:58:21.050Z,53.25
2016-09-10T09:58:46.969Z,53.25
2016-09-10T09:59:12.516Z,53.25
2016-09-10T09:59:38.110Z,53.83
2016-09-10T10:00:04.368Z,53.35
2016-09-10T10:00:29.950Z,53.25
2016-09-10T10:00:56.086Z,53.16
2016-09-10T10:01:21.687Z,53.64
2016-09-10T10:01:47.897Z,53.64
2016-09-10T10:02:13.533Z,53.64
2016-09-10T10:02:39.120Z,53.25
2016-09-10T10:03:05.287Z,53.35
2016-09-10T10:03:30.929Z,53.45
2016-09-10T10:03:57.043Z,53.25
2016-09-10T10:04:22.603Z,53.74
2016-09-10T10:04:48.261Z,53.16
2016-09-10T10:05:14.383Z,53.25
2016-09-10T10:05:39.942Z,53.16
2016-09-10T10:06:06.171Z,53.45
2016-09-10T10:06:31.790Z,53.28
2016-09-10T10:06:57.977Z,53.35
2016-09-10T10:07:23.619Z,53.35
2016-09-10T10:07:49.231Z,52.87
2016-09-10T10:08:15.530Z,53.16
2016-09-10T10:08:41.139Z,53.25
2016-09-10T10:09:07.100Z,52.97
2016-09-10T10:09:32.696Z,52.97
2016-09-10T10:09:58.283Z,53.38
2016-09-10T10:10:24.386Z,53.47
2016-09-10T10:10:50.332Z,53.47
2016-09-10T10:11:16.254Z,53.35
2016-09-10T10:11:41.804Z,53.93
2016-09-10T10:12:08.038Z,53.16
2016-09-10T10:12:33.644Z,53.77
2016-09-10T10:12:59.228Z,53.77
2016-09-10T10:13:25.402Z,53.19
2016-09-10T10:13:50.982Z,53.19
2016-09-10T10:14:17.179Z,52.8
2016-09-10T10:14:42.845Z,53.19
2016-09-10T10:15:08.970Z,53.28
2016-09-10T10:15:34.598Z,53.64
2016-09-10T10:16:00.220Z,52.89
2016-09-10T10:16:26.334Z,53.19
2016-09-10T10:16:51.856Z,52.8
2016-09-10T10:17:18.125Z,52.8
2016-09-10T10:17:43.699Z,53.19
2016-09-10T10:18:09.773Z,53.19
2016-09-10T10:18:35.570Z,53.09
2016-09-10T10:19:01.092Z,53.19
2016-09-10T10:19:27.340Z,53.09
2016-09-10T10:19:53.243Z,53.47
2016-09-10T10:20:18.869Z,53.86
2016-09-10T10:20:44.783Z,53.19
2016-09-10T10:21:10.393Z,53.47
2016-09-10T10:21:36.481Z,53.28
2016-09-10T10:22:02.127Z,52.7
2016-09-10T10:22:28.304Z,52.99
2016-09-10T10:22:53.914Z,52.8
2016-09-10T10:23:19.464Z,53.67
2016-09-10T10:23:45.644Z,53.19
2016-09-10T10:24:11.459Z,53.09
2016-09-10T10:24:37.494Z,53.57
2016-09-10T10:25:03.183Z,52.89
2016-09-10T10:25:28.835Z,53.38
2016-09-10T10:25:54.854Z,53.19
2016-09-10T10:26:20.989Z,53.09
2016-09-10T10:26:46.649Z,52.8
2016-09-10T10:27:12.239Z,53.09
2016-09-10T10:27:38.373Z,53.28
2016-09-10T10:28:03.949Z,53.19
2016-09-10T10:28:29.586Z,53.19
2016-09-10T10:28:55.714Z,53.38
2016-09-10T10:29:21.430Z,52.99
2016-09-10T10:29:47.547Z,53.09
2016-09-10T10:30:14.018Z,53.19
2016-09-10T10:30:39.590Z,53.57
2016-09-10T10:31:05.475Z,52.89
2016-09-10T10:31:31.149Z,53.57
2016-09-10T10:31:56.762Z,53.09
2016-09-10T10:32:22.327Z,52.89
2016-09-10T10:32:48.473Z,53.19
2016-09-10T10:33:14.037Z,52.61
2016-09-10T10:33:39.751Z,52.99
2016-09-10T10:34:05.845Z,52.7
2016-09-10T10:34:31.423Z,52.51
2016-09-10T10:34:57.588Z,52.8
2016-09-10T10:35:23.333Z,53.38
2016-09-10T10:35:48.868Z,52.99
2016-09-10T10:36:14.936Z,53.28
2016-09-10T10:36:40.543Z,53.28
2016-09-10T10:37:06.726Z,53.28